createdAt,value
2022-08-18T00:01:32.817Z,19.50
2022-08-18T00:04:03.293Z,19.70
2022-08-18T00:06:30.806Z,19.60
2022-08-18T00:09:04.017Z,19.50
2022-08-18T00:11:41.532Z,19.60
2022-08-18T00:14:22.150Z,19.50
2022-08-18T00:16:51.729Z,19.40
2022-08-18T00:19:18.424Z,19.40
2022-08-18T00:21:45.055Z,19.40
2022-08-18T00:24:11.787Z,19.30
2022-08-18T00:26:38.429Z,19.20
2022-08-18T00:29:05.178Z,19.30
2022-08-18T00:31:32.307Z,19.30
2022-08-18T00:33:59.279Z,19.40
2022-08-18T00:36:26.221Z,19.40
2022-08-18T00:38:53.446Z,19.30
2022-08-18T00:41:21.577Z,19.40
2022-08-18T00:43:50.036Z,19.30
2022-08-18T00:46:23.837Z,19.30
2022-08-18T00:48:51.052Z,19.30
2022-08-18T00:51:37.953Z,19.20
2022-08-18T00:54:20.730Z,19.30
2022-08-18T00:56:51.332Z,19.30
2022-08-18T00:59:33.851Z,19.30
2022-08-18T01:02:03.010Z,19.30
2022-08-18T01:04:44.463Z,19.40
2022-08-18T01:07:17.486Z,19.40
2022-08-18T01:09:44.111Z,19.40
2022-08-18T01:12:39.414Z,19.40
2022-08-18T01:14:57.648Z,19.40
2022-08-18T01:17:25.439Z,19.40
2022-08-18T01:19:52.220Z,19.30
2022-08-18T01:22:35.661Z,19.30
2022-08-18T01:25:03.666Z,19.10
2022-08-18T01:27:30.711Z,19.00
2022-08-18T01:29:57.396Z,18.90
2022-08-18T01:32:24.021Z,18.90
2022-08-18T01:34:52.017Z,19.00
2022-08-18T01:37:21.599Z,19.00
2022-08-18T01:41:23.718Z,19.00
2022-08-18T01:42:36.512Z,19.00
2022-08-18T01:45:05.164Z,19.10
2022-08-18T01:47:47.801Z,19.10
2022-08-18T01:50:15.960Z,19.10
2022-08-18T01:52:42.608Z,19.10
2022-08-18T01:55:10.156Z,19.00
2022-08-18T01:57:38.949Z,19.00
2022-08-18T02:00:06.504Z,19.00
2022-08-18T02:02:33.596Z,19.00
2022-08-18T02:05:05.219Z,18.90
2022-08-18T02:07:36.100Z,18.80
2022-08-18T02:10:05.403Z,18.70
2022-08-18T02:12:39.614Z,18.70
2022-08-18T02:15:06.845Z,18.70
2022-08-18T02:17:39.446Z,18.70
2022-08-18T02:20:08.881Z,18.70
2022-08-18T02:22:36.165Z,18.70
2022-08-18T02:25:03.816Z,18.70
2022-08-18T02:27:34.323Z,18.70
2022-08-18T02:30:02.659Z,18.70
2022-08-18T02:32:29.577Z,18.60
2022-08-18T02:34:56.199Z,18.70
2022-08-18T02:37:22.879Z,18.60
2022-08-18T02:39:50.275Z,18.60
2022-08-18T02:42:17.120Z,18.60
2022-08-18T02:44:43.806Z,18.50
2022-08-18T02:47:10.591Z,18.50
2022-08-18T02:49:37.242Z,18.50
2022-08-18T02:52:04.371Z,18.50
2022-08-18T02:54:31.030Z,18.40
2022-08-18T02:56:57.815Z,18.50
2022-08-18T02:59:26.827Z,18.40
2022-08-18T03:01:55.961Z,18.40
2022-08-18T03:04:29.130Z,18.40
2022-08-18T03:06:59.372Z,18.40
2022-08-18T03:09:26.197Z,18.30
2022-08-18T03:11:52.831Z,18.30
2022-08-18T03:14:19.443Z,18.30
2022-08-18T03:16:53.900Z,18.30
2022-08-18T03:19:23.815Z,18.20
2022-08-18T03:21:50.583Z,18.20
2022-08-18T03:24:22.718Z,18.20
2022-08-18T03:26:52.703Z,18.20
2022-08-18T03:29:20.844Z,18.10
2022-08-18T03:31:47.638Z,18.20
2022-08-18T03:34:15.237Z,18.10
2022-08-18T03:36:41.875Z,18.20
2022-08-18T03:39:10.744Z,18.20
2022-08-18T03:41:43.658Z,18.10
2022-08-18T03:44:27.479Z,18.10
2022-08-18T03:46:54.107Z,18.00
2022-08-18T03:49:20.731Z,18.00
2022-08-18T03:51:47.951Z,18.10
2022-08-18T03:54:16.522Z,18.00
2022-08-18T03:56:44.781Z,17.90
2022-08-18T03:59:17.504Z,18.00
2022-08-18T04:01:46.737Z,18.00
2022-08-18T04:04:16.575Z,18.10
2022-08-18T04:06:49.564Z,18.10
2022-08-18T04:09:17.491Z,18.10
2022-08-18T04:11:45.108Z,18.10
2022-08-18T04:14:14.312Z,18.00
2022-08-18T04:16:41.803Z,18.00
2022-08-18T04:19:09.796Z,18.00
2022-08-18T04:21:39.333Z,18.00
2022-08-18T04:24:07.238Z,18.00
2022-08-18T04:26:37.402Z,18.00
2022-08-18T04:29:05.818Z,17.90
2022-08-18T04:31:32.479Z,18.00
2022-08-18T04:34:00.767Z,18.00
2022-08-18T04:36:28.832Z,18.00
2022-08-18T04:38:57.105Z,18.00
2022-08-18T04:41:25.058Z,18.10
2022-08-18T04:43:51.673Z,18.10
2022-08-18T04:46:18.659Z,18.00
2022-08-18T04:48:50.834Z,18.00
2022-08-18T04:52:26.635Z,18.10
2022-08-18T04:54:06.662Z,18.00
2022-08-18T04:56:37.335Z,18.00
2022-08-18T04:59:08.299Z,18.00
2022-08-18T05:01:41.137Z,18.10
2022-08-18T05:04:08.944Z,18.00
2022-08-18T05:06:37.109Z,18.00
2022-08-18T05:09:06.629Z,18.00
2022-08-18T05:11:33.532Z,18.00
2022-08-18T05:14:01.856Z,18.00
2022-08-18T05:16:29.377Z,18.10
2022-08-18T05:18:57.226Z,18.10
2022-08-18T05:21:24.596Z,18.20
2022-08-18T05:23:51.355Z,18.30
2022-08-18T05:26:19.311Z,18.30
2022-08-18T05:28:47.083Z,18.30
2022-08-18T05:31:19.976Z,18.40
2022-08-18T05:33:47.810Z,18.50
2022-08-18T05:36:41.779Z,18.40
2022-08-18T05:39:17.478Z,18.30
2022-08-18T05:41:51.614Z,18.40
2022-08-18T05:44:30.719Z,18.30
2022-08-18T05:47:21.733Z,18.30
2022-08-18T05:49:49.336Z,18.40
2022-08-18T05:52:48.518Z,18.40
2022-08-18T05:55:33.388Z,18.50
2022-08-18T05:58:03.052Z,18.50
2022-08-18T06:00:30.528Z,18.50
2022-08-18T06:03:17.178Z,18.60
2022-08-18T06:05:56.716Z,18.50
2022-08-18T06:08:32.829Z,18.50
2022-08-18T06:10:59.644Z,18.50
2022-08-18T06:13:26.330Z,18.50
2022-08-18T06:16:22.611Z,18.50
2022-08-18T06:19:20.066Z,18.60
2022-08-18T06:21:49.415Z,18.60
2022-08-18T06:24:50.333Z,18.60
2022-08-18T06:27:33.002Z,18.50
2022-08-18T06:30:08.300Z,18.50
2022-08-18T06:32:56.342Z,18.60
2022-08-18T06:35:48.492Z,18.50
2022-08-18T06:38:18.220Z,18.60
2022-08-18T06:40:47.640Z,18.60
2022-08-18T06:43:15.954Z,18.60
2022-08-18T06:45:45.152Z,18.60
2022-08-18T06:48:33.565Z,18.60
2022-08-18T06:51:02.754Z,18.60
2022-08-18T06:53:54.371Z,18.70
2022-08-18T06:56:40.962Z,18.70
2022-08-18T06:59:34.453Z,18.80
2022-08-18T07:02:45.548Z,18.80
2022-08-18T07:05:15.136Z,18.80
2022-08-18T07:07:42.754Z,18.80
2022-08-18T07:10:15.179Z,18.90
2022-08-18T07:12:42.181Z,19.10
2022-08-18T07:15:12.779Z,19.00
2022-08-18T07:17:43.554Z,19.10
2022-08-18T07:20:24.449Z,19.10
2022-08-18T07:23:07.906Z,19.20
2022-08-18T07:25:46.597Z,19.30
2022-08-18T07:28:33.702Z,19.30
2022-08-18T07:31:17.838Z,19.30
2022-08-18T07:33:53.418Z,19.50
2022-08-18T07:36:23.360Z,19.60
2022-08-18T07:38:55.633Z,19.70
2022-08-18T07:41:52.506Z,19.70
2022-08-18T07:44:47.111Z,19.80
2022-08-18T07:47:26.967Z,19.70
2022-08-18T07:50:15.480Z,19.80
2022-08-18T07:52:48.460Z,19.80
2022-08-18T07:55:31.335Z,19.90
2022-08-18T07:58:24.850Z,19.90
2022-08-18T08:01:06.634Z,19.90
2022-08-18T08:04:03.818Z,19.90
2022-08-18T08:07:13.024Z,19.80
2022-08-18T08:09:52.248Z,20.00
2022-08-18T08:12:50.867Z,19.90
2022-08-18T08:15:36.259Z,20.10
2022-08-18T08:18:39.381Z,20.20
2022-08-18T09:05:32.987Z,22.30
2022-08-18T09:08:24.337Z,22.60
2022-08-18T09:11:15.109Z,22.50
2022-08-18T09:14:03.734Z,22.60
2022-08-18T09:16:58.818Z,22.30
2022-08-18T09:19:43.855Z,22.50
2022-08-18T09:22:18.414Z,22.70
2022-08-18T09:24:51.633Z,22.80
2022-08-18T09:28:07.360Z,22.90
2022-08-18T09:30:38.828Z,23.10
2022-08-18T09:33:22.990Z,23.30
2022-08-18T09:36:20.015Z,23.40
2022-08-18T09:38:55.475Z,23.70
2022-08-18T09:41:27.891Z,23.70
2022-08-18T09:44:12.022Z,23.60
2022-08-18T09:46:47.819Z,23.70
2022-08-18T09:49:23.773Z,23.70
2022-08-18T09:51:56.081Z,23.90
2022-08-18T09:54:31.296Z,24.00
2022-08-18T09:57:16.184Z,23.80
2022-08-18T09:59:46.243Z,23.90
2022-08-18T10:02:33.355Z,24.10
2022-08-18T10:05:28.084Z,24.30
2022-08-18T10:08:06.791Z,24.50
2022-08-18T10:11:02.402Z,24.50
2022-08-18T10:13:49.878Z,24.60
2022-08-18T10:17:13.140Z,24.70
2022-08-18T10:19:52.125Z,24.80
2022-08-18T10:22:38.655Z,25.10
2022-08-18T10:25:22.266Z,25.20
2022-08-18T10:27:53.516Z,25.20
2022-08-18T10:30:30.520Z,25.40
2022-08-18T10:33:17.227Z,25.50
2022-08-18T10:36:00.221Z,25.70
2022-08-18T10:38:49.397Z,25.60
2022-08-18T10:41:24.065Z,25.80
2022-08-18T10:43:57.513Z,25.90
2022-08-18T10:46:31.912Z,26.00
2022-08-18T10:49:04.391Z,26.10
2022-08-18T10:52:00.659Z,25.80
2022-08-18T10:54:51.857Z,25.90
2022-08-18T10:57:29.088Z,26.10
2022-08-18T11:00:11.930Z,26.30
2022-08-18T11:03:42.395Z,26.50
2022-08-18T11:06:14.396Z,26.60
2022-08-18T11:08:48.123Z,26.10
2022-08-18T11:11:53.619Z,26.10
2022-08-18T11:14:37.679Z,26.20
2022-08-18T11:17:21.172Z,26.30
2022-08-18T11:19:50.687Z,26.40
2022-08-18T11:22:34.146Z,26.60
2022-08-18T11:25:16.895Z,26.70
2022-08-18T11:27:47.169Z,26.90
2022-08-18T11:30:15.323Z,26.90
2022-08-18T11:32:51.815Z,27.00
2022-08-18T11:35:51.834Z,27.00
2022-08-18T11:38:23.251Z,26.90
2022-08-18T11:41:11.221Z,26.60
2022-08-18T11:43:42.278Z,26.50
2022-08-18T11:46:37.079Z,26.50
2022-08-18T11:49:16.863Z,26.80
2022-08-18T11:52:03.531Z,26.70
2022-08-18T11:54:50.488Z,26.90
2022-08-18T11:57:29.436Z,27.10
2022-08-18T12:02:43.086Z,27.30
2022-08-18T12:05:10.551Z,27.00
2022-08-18T12:07:41.709Z,27.20
2022-08-18T12:10:28.628Z,27.10
2022-08-18T12:12:57.244Z,27.10
2022-08-18T12:21:06.918Z,26.90
2022-08-18T12:23:44.740Z,27.10
2022-08-18T12:26:26.878Z,27.00
2022-08-18T12:29:03.824Z,26.90
2022-08-18T12:31:42.724Z,27.20
2022-08-18T12:34:14.941Z,27.50
2022-08-18T12:36:42.422Z,27.40
2022-08-18T12:39:10.287Z,27.30
2022-08-18T12:41:37.776Z,27.20
2022-08-18T12:44:04.633Z,27.30
2022-08-18T12:46:42.861Z,27.50
2022-08-18T12:49:18.022Z,27.60
2022-08-18T12:51:45.031Z,27.60
2022-08-18T12:54:17.798Z,27.50
2022-08-18T12:56:53.079Z,27.30
2022-08-18T12:59:19.878Z,27.20
2022-08-18T13:01:47.128Z,27.10
2022-08-18T13:04:15.501Z,27.00
2022-08-18T13:07:00.075Z,27.10
2022-08-18T13:09:48.088Z,27.20
2022-08-18T13:12:19.757Z,26.80
2022-08-18T13:14:47.837Z,26.90
2022-08-18T13:17:33.502Z,26.90
2022-08-18T13:20:08.004Z,27.00
2022-08-18T13:22:35.229Z,26.80
2022-08-18T13:25:05.198Z,26.90
2022-08-18T13:27:35.231Z,26.70
2022-08-18T13:30:16.637Z,26.80
2022-08-18T13:32:58.842Z,26.60
2022-08-18T13:35:30.115Z,26.50
2022-08-18T13:38:14.432Z,26.50
2022-08-18T13:40:47.166Z,26.40
2022-08-18T13:43:15.046Z,26.30
2022-08-18T13:45:44.599Z,26.40
2022-08-18T13:48:11.414Z,26.50
2022-08-18T13:50:39.798Z,26.50
2022-08-18T13:53:14.487Z,26.40
2022-08-18T13:55:41.101Z,26.40
2022-08-18T13:58:17.673Z,26.60
2022-08-18T14:00:49.134Z,26.60
2022-08-18T14:03:20.594Z,26.50
2022-08-18T14:06:04.020Z,26.60
2022-08-18T14:08:33.769Z,26.50
2022-08-18T14:11:03.119Z,26.40
2022-08-18T14:13:29.815Z,26.30
2022-08-18T14:16:05.168Z,26.30
2022-08-18T14:18:31.758Z,26.30
2022-08-18T14:20:58.827Z,26.30
2022-08-18T14:23:33.226Z,26.30
2022-08-18T14:26:00.381Z,26.40
2022-08-18T14:28:28.206Z,26.30
2022-08-18T14:30:55.978Z,26.20
2022-08-18T14:33:34.299Z,26.20
2022-08-18T14:36:14.119Z,26.00
2022-08-18T14:38:41.077Z,26.10
2022-08-18T14:41:10.898Z,26.10
2022-08-18T14:44:11.693Z,25.90
2022-08-18T14:46:30.149Z,25.90
2022-08-18T14:48:59.232Z,25.70
2022-08-18T14:51:27.291Z,25.80
2022-08-18T14:53:55.696Z,25.80
2022-08-18T14:56:22.787Z,25.80
2022-08-18T14:58:54.946Z,25.70
2022-08-18T15:01:23.126Z,25.70
2022-08-18T15:03:49.864Z,25.70
2022-08-18T15:06:23.072Z,25.60
2022-08-18T15:08:54.309Z,25.60
2022-08-18T15:11:23.820Z,25.60
2022-08-18T15:13:50.675Z,25.50
2022-08-18T15:16:17.873Z,25.60
2022-08-18T15:18:46.161Z,25.50
2022-08-18T15:21:35.069Z,25.40
2022-08-18T15:24:03.729Z,25.40
2022-08-18T15:26:30.346Z,25.30
2022-08-18T15:29:00.723Z,25.20
2022-08-18T15:31:51.029Z,25.20
2022-08-18T15:34:20.801Z,25.20
2022-08-18T15:36:49.023Z,25.20
2022-08-18T15:39:16.737Z,25.20
2022-08-18T15:41:45.809Z,25.20
2022-08-18T15:44:14.301Z,25.10
2022-08-18T15:46:41.228Z,25.10
2022-08-18T15:49:11.324Z,25.00
2022-08-18T15:51:42.195Z,25.10
2022-08-18T15:54:12.026Z,24.90
2022-08-18T15:56:39.759Z,24.90
2022-08-18T15:59:10.023Z,24.90
2022-08-18T16:01:41.880Z,24.80
2022-08-18T16:06:41.083Z,24.80
2022-08-18T16:09:08.477Z,24.80
2022-08-18T16:11:35.110Z,24.80
2022-08-18T16:14:01.729Z,24.80
2022-08-18T16:16:29.736Z,24.80
2022-08-18T16:19:05.194Z,24.80
2022-08-18T16:21:31.847Z,24.70
2022-08-18T16:23:58.498Z,24.70
2022-08-18T16:26:25.171Z,24.70
2022-08-18T16:28:52.998Z,24.70
2022-08-18T16:31:22.197Z,24.70
2022-08-18T16:33:48.803Z,24.60
2022-08-18T16:36:15.420Z,24.50
2022-08-18T16:38:42.091Z,24.40
2022-08-18T16:41:15.874Z,24.40
2022-08-18T16:43:44.696Z,24.30
2022-08-18T16:46:20.137Z,24.30
2022-08-18T16:48:47.154Z,24.30
2022-08-18T16:51:15.993Z,24.30
2022-08-18T16:53:42.706Z,24.20
2022-08-18T16:56:15.088Z,24.20
2022-08-18T16:58:41.750Z,24.10
2022-08-18T17:01:09.977Z,24.00
2022-08-18T17:03:38.204Z,23.80
2022-08-18T17:06:08.655Z,23.80
2022-08-18T17:08:35.948Z,23.70
2022-08-18T17:11:05.380Z,23.60
2022-08-18T17:13:32.750Z,23.50
2022-08-18T17:15:59.460Z,23.50
2022-08-18T17:18:26.452Z,23.40
2022-08-18T17:20:53.208Z,23.50
2022-08-18T17:23:22.437Z,23.40
2022-08-18T17:25:50.059Z,23.40
2022-08-18T17:28:23.048Z,23.30
2022-08-18T17:30:52.918Z,23.10
2022-08-18T17:33:24.362Z,23.00
2022-08-18T17:35:52.013Z,23.00
2022-08-18T17:38:25.965Z,22.90
2022-08-18T17:40:57.080Z,22.80
2022-08-18T17:43:29.837Z,22.80
2022-08-18T17:46:08.645Z,22.70
2022-08-18T17:48:41.137Z,22.70
2022-08-18T17:51:12.167Z,22.60
2022-08-18T17:53:39.749Z,22.40
2022-08-18T17:56:21.057Z,22.50
2022-08-18T17:58:54.118Z,22.30
2022-08-18T18:01:20.916Z,22.20
2022-08-18T18:03:47.597Z,22.20
2022-08-18T18:06:28.998Z,22.10
2022-08-18T18:09:28.593Z,22.00
2022-08-18T18:11:55.253Z,21.90
2022-08-18T18:14:48.129Z,21.70
2022-08-18T18:17:14.685Z,21.70
2022-08-18T18:19:50.628Z,21.60
2022-08-18T18:22:21.763Z,21.40
2022-08-18T18:24:52.789Z,21.30
2022-08-18T18:27:28.653Z,21.30
2022-08-18T18:30:07.416Z,21.20
2022-08-18T18:32:48.396Z,21.20
2022-08-18T18:35:29.795Z,21.20
2022-08-18T18:38:23.667Z,21.10
2022-08-18T18:41:05.668Z,20.90
2022-08-18T18:43:35.274Z,20.80
2022-08-18T18:46:04.879Z,20.80
2022-08-18T18:48:51.809Z,20.80
2022-08-18T18:51:45.040Z,20.90
2022-08-18T18:54:16.412Z,20.80
2022-08-18T18:56:51.839Z,20.80
2022-08-18T18:59:42.711Z,20.80
2022-08-18T19:02:34.890Z,20.80
2022-08-18T19:05:20.626Z,20.70
2022-08-18T19:07:58.683Z,20.80
2022-08-18T19:10:56.392Z,20.70
2022-08-18T19:13:33.370Z,20.70
2022-08-18T19:16:28.377Z,20.70
2022-08-18T19:19:35.671Z,20.80
2022-08-18T19:22:03.205Z,20.80
2022-08-18T19:24:38.868Z,20.80
2022-08-18T19:27:24.586Z,20.80
2022-08-18T19:29:56.153Z,20.80
2022-08-18T19:32:32.491Z,20.70
2022-08-18T19:34:59.234Z,20.60
2022-08-18T19:37:38.361Z,20.60
2022-08-18T19:40:28.067Z,20.60
2022-08-18T19:42:58.453Z,20.60
2022-08-18T19:45:30.080Z,20.50
2022-08-18T19:48:17.622Z,20.40
2022-08-18T19:50:59.422Z,20.30
2022-08-18T19:53:58.207Z,20.20
2022-08-18T19:56:34.688Z,20.20
2022-08-18T19:59:35.035Z,20.20
2022-08-18T20:02:13.360Z,20.20
2022-08-18T20:05:09.288Z,20.30
2022-08-18T20:07:53.406Z,20.30
2022-08-18T20:10:45.591Z,20.30
2022-08-18T20:13:22.034Z,20.30
2022-08-18T20:16:02.778Z,20.30
2022-08-18T20:18:36.727Z,20.30
2022-08-18T20:21:15.357Z,20.30
2022-08-18T20:24:03.705Z,20.30
2022-08-18T20:26:36.478Z,20.30
2022-08-18T20:29:07.821Z,20.30
2022-08-18T20:31:43.428Z,20.40
2022-08-18T20:34:14.301Z,20.30
2022-08-18T20:36:43.829Z,20.20
2022-08-18T20:39:32.338Z,20.20
2022-08-18T20:42:06.191Z,20.20
2022-08-18T20:45:11.984Z,20.30
2022-08-18T20:48:05.553Z,20.30
2022-08-18T20:50:50.244Z,20.20
2022-08-18T20:53:50.012Z,20.20
2022-08-18T20:56:51.170Z,20.20
2022-08-18T20:59:22.890Z,20.10
2022-08-18T21:01:59.017Z,20.20
2022-08-18T21:04:51.107Z,20.20
2022-08-18T21:07:36.374Z,20.10
2022-08-18T21:10:25.969Z,20.10
2022-08-18T21:12:55.757Z,20.00
2022-08-18T21:15:28.899Z,20.00
2022-08-18T21:18:20.110Z,19.90
2022-08-18T21:20:48.663Z,19.80
2022-08-18T21:23:32.892Z,19.80
2022-08-18T21:26:13.600Z,19.80
2022-08-18T21:28:44.916Z,19.70
2022-08-18T21:31:43.908Z,19.60
2022-08-18T21:34:33.442Z,19.60
2022-08-18T21:37:03.648Z,19.60
2022-08-18T21:39:30.287Z,19.60
2022-08-18T21:41:58.346Z,19.50
2022-08-18T21:44:41.691Z,19.60
2022-08-18T21:47:18.059Z,19.60
2022-08-18T21:50:09.327Z,19.50
2022-08-18T21:52:39.515Z,19.50
2022-08-18T21:55:17.359Z,19.50
2022-08-18T21:57:57.954Z,19.50
2022-08-18T22:00:30.969Z,19.50
2022-08-18T22:03:18.063Z,19.50
2022-08-18T22:05:59.057Z,19.50
2022-08-18T22:08:28.871Z,19.50
2022-08-18T22:11:57.726Z,19.50
2022-08-18T22:14:55.141Z,19.50
2022-08-18T22:17:41.870Z,19.40
2022-08-18T22:20:39.103Z,19.30
2022-08-18T22:23:14.858Z,19.30
2022-08-18T22:25:41.521Z,19.30
2022-08-18T22:28:08.165Z,19.30
2022-08-18T22:30:34.784Z,19.20
2022-08-18T22:33:01.371Z,19.20
2022-08-18T22:35:28.769Z,19.20
2022-08-18T22:37:55.358Z,19.20
2022-08-18T22:40:22.137Z,19.20
2022-08-18T22:42:49.379Z,19.10
2022-08-18T22:45:16.313Z,19.10
2022-08-18T22:47:45.097Z,19.10
2022-08-18T22:50:13.067Z,19.10
2022-08-18T22:52:46.014Z,19.20
2022-08-18T22:55:15.074Z,19.20
2022-08-18T22:57:45.139Z,19.30
2022-08-18T23:00:17.563Z,19.30
2022-08-18T23:02:44.896Z,19.30
2022-08-18T23:05:11.746Z,19.30
2022-08-18T23:07:38.375Z,19.40
2022-08-18T23:10:13.674Z,19.40
2022-08-18T23:12:44.572Z,19.30
2022-08-18T23:15:11.370Z,19.30
2022-08-18T23:17:39.030Z,19.40
2022-08-18T23:20:07.467Z,19.40
2022-08-18T23:22:38.798Z,19.30
2022-08-18T23:25:09.150Z,19.30
2022-08-18T23:27:36.188Z,19.40
2022-08-18T23:30:03.941Z,19.40
2022-08-18T23:32:32.231Z,19.30
2022-08-18T23:34:59.386Z,19.20
2022-08-18T23:37:26.167Z,19.20
2022-08-18T23:39:52.841Z,19.20
2022-08-18T23:42:19.507Z,19.20
2022-08-18T23:44:50.204Z,19.10
2022-08-18T23:47:17.022Z,19.10
2022-08-18T23:49:43.619Z,19.10
2022-08-18T23:52:10.247Z,19.00
2022-08-18T23:54:36.878Z,19.00
2022-08-18T23:57:03.631Z,19.10
2022-08-18T23:59:30.468Z,19.10
